sensor_id;sensor_type;location;lat;lon;timestamp;pressure;altitude;pressure_sealevel;temperature;humidity
63691;BME280;49837;57.280;27.070;2024-01-16T00:00:38;96638.16;;;-2.06;100.0
63691;BME280;49837;57.280;27.070;2024-01-16T00:01:42;96641.93;;;-2.02;100.0
63691;BME280;49837;57.280;27.070;2024-01-16T00:02:39;96644.46;;;-2.07;100.0
63691;BME280;49837;57.280;27.070;2024-01-16T00:03:39;96642.3;;;-2.06;100.0
63691;BME280;49837;57.280;27.070;2024-01-16T00:04:40;96642.81;;;-2.03;100.0
63691;BME280;49837;57.280;27.070;2024-01-16T00:05:40;96643.22;;;-2.06;100.0
63691;BME280;49837;57.280;27.070;2024-01-16T00:06:41;96648.03;;;-2.02;100.0
63691;BME280;49837;57.280;27.070;2024-01-16T00:07:42;96650.55;;;-1.98;100.0
63691;BME280;49837;57.280;27.070;2024-01-16T00:08:43;96644.87;;;-2.02;100.0
63691;BME280;49837;57.280;27.070;2024-01-16T00:09:43;96649.41;;;-2.0;100.0
63691;BME280;49837;57.280;27.070;2024-01-16T00:10:43;96650.75;;;-2.01;100.0
63691;BME280;49837;57.280;27.070;2024-01-16T00:11:44;96649.09;;;-2.03;100.0
63691;BME280;49837;57.280;27.070;2024-01-16T00:12:44;96648.98;;;-2.02;100.0
63691;BME280;49837;57.280;27.070;2024-01-16T00:13:44;96648.46;;;-2.01;100.0
63691;BME280;49837;57.280;27.070;2024-01-16T00:14:45;96649.16;;;-2.03;100.0
63691;BME280;49837;57.280;27.070;2024-01-16T00:15:45;96646.2;;;-1.98;100.0
63691;BME280;49837;57.280;27.070;2024-01-16T00:16:46;96648.91;;;-1.98;100.0
63691;BME280;49837;57.280;27.070;2024-01-16T00:17:46;96647.95;;;-2.06;100.0
63691;BME280;49837;57.280;27.070;2024-01-16T00:18:46;96649.35;;;-2.04;100.0
63691;BME280;49837;57.280;27.070;2024-01-16T00:19:46;96649.73;;;-2.0;100.0
63691;BME280;49837;57.280;27.070;2024-01-16T00:20:47;96649.84;;;-1.95;100.0
63691;BME280;49837;57.280;27.070;2024-01-16T00:21:47;96646.02;;;-1.95;100.0
63691;BME280;49837;57.280;27.070;2024-01-16T00:22:47;96653.38;;;-1.95;100.0
63691;BME280;49837;57.280;27.070;2024-01-16T00:23:48;96649.34;;;-1.92;100.0
63691;BME280;49837;57.280;27.070;2024-01-16T00:24:48;96651.41;;;-1.93;100.0
63691;BME280;49837;57.280;27.070;2024-01-16T00:25:48;96647.63;;;-1.97;100.0
63691;BME280;49837;57.280;27.070;2024-01-16T00:26:49;96646.11;;;-2.0;100.0
63691;BME280;49837;57.280;27.070;2024-01-16T00:27:49;96645.91;;;-2.01;100.0
63691;BME280;49837;57.280;27.070;2024-01-16T00:28:49;96646.66;;;-2.01;100.0
63691;BME280;49837;57.280;27.070;2024-01-16T00:29:49;96645.32;;;-2.0;100.0
63691;BME280;49837;57.280;27.070;2024-01-16T00:30:50;96645.38;;;-2.0;100.0
63691;BME280;49837;57.280;27.070;2024-01-16T00:31:50;96651.23;;;-2.01;100.0
63691;BME280;49837;57.280;27.070;2024-01-16T00:32:51;96647.16;;;-2.05;100.0
63691;BME280;49837;57.280;27.070;2024-01-16T00:33:51;96648.59;;;-2.03;100.0
63691;BME280;49837;57.280;27.070;2024-01-16T00:34:52;96646.16;;;-1.97;100.0
63691;BME280;49837;57.280;27.070;2024-01-16T00:35:52;96643.76;;;-2.02;100.0
63691;BME280;49837;57.280;27.070;2024-01-16T00:36:52;96644.86;;;-2.08;100.0
63691;BME280;49837;57.280;27.070;2024-01-16T00:37:52;96648.74;;;-2.07;100.0
63691;BME280;49837;57.280;27.070;2024-01-16T00:38:53;96648.84;;;-2.1;100.0
63691;BME280;49837;57.280;27.070;2024-01-16T00:39:53;96651.33;;;-2.11;100.0
63691;BME280;49837;57.280;27.070;2024-01-16T00:40:54;96653.12;;;-2.11;100.0
63691;BME280;49837;57.280;27.070;2024-01-16T00:41:54;96651.3;;;-2.1;100.0
63691;BME280;49837;57.280;27.070;2024-01-16T00:42:54;96656.12;;;-2.08;100.0
63691;BME280;49837;57.280;27.070;2024-01-16T00:43:54;96651.82;;;-2.11;100.0
63691;BME280;49837;57.280;27.070;2024-01-16T00:44:55;96654.41;;;-2.15;100.0
63691;BME280;49837;57.280;27.070;2024-01-16T00:45:55;96651.19;;;-2.19;100.0
63691;BME280;49837;57.280;27.070;2024-01-16T00:46:55;96656.28;;;-2.18;100.0
63691;BME280;49837;57.280;27.070;2024-01-16T00:47:55;96656.6;;;-2.15;100.0
63691;BME280;49837;57.280;27.070;2024-01-16T00:48:56;96661.44;;;-2.18;100.0
63691;BME280;49837;57.280;27.070;2024-01-16T00:49:56;96657.86;;;-2.21;100.0
63691;BME280;49837;57.280;27.070;2024-01-16T00:50:56;96654.84;;;-2.18;100.0
63691;BME280;49837;57.280;27.070;2024-01-16T00:51:57;96652.47;;;-2.18;100.0
63691;BME280;49837;57.280;27.070;2024-01-16T00:52:57;96650.26;;;-2.13;100.0
63691;BME280;49837;57.280;27.070;2024-01-16T00:53:57;96652.77;;;-2.1;100.0
63691;BME280;49837;57.280;27.070;2024-01-16T00:54:58;96653.98;;;-2.15;100.0
63691;BME280;49837;57.280;27.070;2024-01-16T00:55:58;96658.39;;;-2.12;100.0
63691;BME280;49837;57.280;27.070;2024-01-16T00:56:58;96659.09;;;-2.09;100.0
63691;BME280;49837;57.280;27.070;2024-01-16T00:57:59;96661.95;;;-2.03;100.0
63691;BME280;49837;57.280;27.070;2024-01-16T00:58:59;96657.05;;;-2.02;100.0
63691;BME280;49837;57.280;27.070;2024-01-16T01:00:00;96654.48;;;-2.03;100.0
63691;BME280;49837;57.280;27.070;2024-01-16T01:01:00;96652.23;;;-2.07;100.0
63691;BME280;49837;57.280;27.070;2024-01-16T01:02:00;96657.0;;;-2.07;100.0
63691;BME280;49837;57.280;27.070;2024-01-16T01:03:01;96657.52;;;-2.06;100.0
63691;BME280;49837;57.280;27.070;2024-01-16T01:04:01;96659.94;;;-2.05;100.0
63691;BME280;49837;57.280;27.070;2024-01-16T01:05:01;96659.62;;;-2.07;100.0
63691;BME280;49837;57.280;27.070;2024-01-16T01:06:02;96655.52;;;-2.12;100.0
63691;BME280;49837;57.280;27.070;2024-01-16T01:07:02;96658.39;;;-2.12;100.0
63691;BME280;49837;57.280;27.070;2024-01-16T01:08:02;96657.86;;;-2.11;100.0
63691;BME280;49837;57.280;27.070;2024-01-16T01:09:02;96655.0;;;-2.13;100.0
63691;BME280;49837;57.280;27.070;2024-01-16T01:10:03;96659.38;;;-2.15;100.0
63691;BME280;49837;57.280;27.070;2024-01-16T01:11:03;96662.05;;;-2.14;100.0
63691;BME280;49837;57.280;27.070;2024-01-16T01:12:04;96662.28;;;-2.14;100.0
63691;BME280;49837;57.280;27.070;2024-01-16T01:13:04;96657.88;;;-2.16;100.0
63691;BME280;49837;57.280;27.070;2024-01-16T01:14:04;96658.53;;;-2.16;100.0
63691;BME280;49837;57.280;27.070;2024-01-16T01:15:05;96657.29;;;-2.16;100.0
63691;BME280;49837;57.280;27.070;2024-01-16T01:16:05;96664.8;;;-2.16;100.0
63691;BME280;49837;57.280;27.070;2024-01-16T01:17:05;96665.06;;;-2.16;100.0
63691;BME280;49837;57.280;27.070;2024-01-16T01:18:05;96663.66;;;-2.16;100.0
63691;BME280;49837;57.280;27.070;2024-01-16T01:19:06;96667.08;;;-2.13;100.0
63691;BME280;49837;57.280;27.070;2024-01-16T01:20:10;96667.17;;;-2.09;100.0
63691;BME280;49837;57.280;27.070;2024-01-16T01:21:07;96662.97;;;-2.15;100.0
63691;BME280;49837;57.280;27.070;2024-01-16T01:22:08;96663.56;;;-2.16;100.0
63691;BME280;49837;57.280;27.070;2024-01-16T01:23:08;96665.27;;;-2.18;100.0
63691;BME280;49837;57.280;27.070;2024-01-16T01:24:08;96666.4;;;-2.15;100.0
63691;BME280;49837;57.280;27.070;2024-01-16T01:25:08;96667.97;;;-2.15;100.0
63691;BME280;49837;57.280;27.070;2024-01-16T01:26:09;96668.78;;;-2.15;100.0
63691;BME280;49837;57.280;27.070;2024-01-16T01:27:09;96669.69;;;-2.11;100.0
63691;BME280;49837;57.280;27.070;2024-01-16T01:28:10;96670.96;;;-2.12;100.0
63691;BME280;49837;57.280;27.070;2024-01-16T01:29:10;96669.94;;;-2.18;100.0
63691;BME280;49837;57.280;27.070;2024-01-16T01:30:10;96676.5;;;-2.19;100.0
63691;BME280;49837;57.280;27.070;2024-01-16T01:31:11;96672.22;;;-2.21;100.0
63691;BME280;49837;57.280;27.070;2024-01-16T01:32:11;96672.72;;;-2.22;100.0
63691;BME280;49837;57.280;27.070;2024-01-16T01:33:11;96673.31;;;-2.24;100.0
63691;BME280;49837;57.280;27.070;2024-01-16T01:34:11;96675.92;;;-2.23;100.0
63691;BME280;49837;57.280;27.070;2024-01-16T01:35:12;96674.9;;;-2.2;100.0
63691;BME280;49837;57.280;27.070;2024-01-16T01:36:12;96665.19;;;-2.15;100.0
63691;BME280;49837;57.280;27.070;2024-01-16T01:37:12;96669.53;;;-2.16;100.0
63691;BME280;49837;57.280;27.070;2024-01-16T01:38:13;96668.09;;;-2.12;100.0
63691;BME280;49837;57.280;27.070;2024-01-16T01:39:13;96669.67;;;-2.15;100.0
63691;BME280;49837;57.280;27.070;2024-01-16T01:40:14;96669.11;;;-2.16;100.0
63691;BME280;49837;57.280;27.070;2024-01-16T01:41:14;96666.11;;;-2.16;100.0
63691;BME280;49837;57.280;27.070;2024-01-16T01:42:15;96665.58;;;-2.15;100.0
63691;BME280;49837;57.280;27.070;2024-01-16T01:43:23;96669.86;;;-2.16;100.0
63691;BME280;49837;57.280;27.070;2024-01-16T01:44:15;96664.19;;;-2.2;100.0
63691;BME280;49837;57.280;27.070;2024-01-16T01:45:16;96665.98;;;-2.22;100.0
63691;BME280;49837;57.280;27.070;2024-01-16T01:46:18;96668.8;;;-2.2;100.0
63691;BME280;49837;57.280;27.070;2024-01-16T01:47:16;96661.25;;;-2.2;100.0
63691;BME280;49837;57.280;27.070;2024-01-16T01:48:17;96667.67;;;-2.14;100.0
63691;BME280;49837;57.280;27.070;2024-01-16T01:49:17;96663.41;;;-2.11;100.0
63691;BME280;49837;57.280;27.070;2024-01-16T01:50:18;96663.39;;;-2.13;100.0
63691;BME280;49837;57.280;27.070;2024-01-16T01:51:18;96665.91;;;-2.15;100.0
63691;BME280;49837;57.280;27.070;2024-01-16T01:52:18;96664.89;;;-2.14;100.0
63691;BME280;49837;57.280;27.070;2024-01-16T01:53:18;96664.48;;;-2.19;100.0
63691;BME280;49837;57.280;27.070;2024-01-16T01:54:19;96666.2;;;-2.16;100.0
63691;BME280;49837;57.280;27.070;2024-01-16T01:55:19;96668.92;;;-2.17;100.0
63691;BME280;49837;57.280;27.070;2024-01-16T01:56:20;96671.94;;;-2.22;100.0
63691;BME280;49837;57.280;27.070;2024-01-16T01:57:20;96668.08;;;-2.2;100.0
63691;BME280;49837;57.280;27.070;2024-01-16T01:58:20;96665.91;;;-2.27;100.0
63691;BME280;49837;57.280;27.070;2024-01-16T01:59:22;96666.0;;;-2.27;100.0
63691;BME280;49837;57.280;27.070;2024-01-16T02:00:21;96665.66;;;-2.33;100.0
63691;BME280;49837;57.280;27.070;2024-01-16T02:01:22;96670.78;;;-2.36;100.0
63691;BME280;49837;57.280;27.070;2024-01-16T02:02:22;96674.05;;;-2.38;100.0
63691;BME280;49837;57.280;27.070;2024-01-16T02:03:23;96675.38;;;-2.34;100.0
63691;BME280;49837;57.280;27.070;2024-01-16T02:04:22;96676.7;;;-2.37;100.0
63691;BME280;49837;57.280;27.070;2024-01-16T02:05:22;96676.86;;;-2.41;100.0
63691;BME280;49837;57.280;27.070;2024-01-16T02:06:23;96675.03;;;-2.43;100.0
63691;BME280;49837;57.280;27.070;2024-01-16T02:07:23;96675.55;;;-2.34;100.0
63691;BME280;49837;57.280;27.070;2024-01-16T02:08:24;96673.61;;;-2.3;100.0
63691;BME280;49837;57.280;27.070;2024-01-16T02:09:24;96675.87;;;-2.32;100.0
63691;BME280;49837;57.280;27.070;2024-01-16T02:10:24;96672.67;;;-2.31;100.0
63691;BME280;49837;57.280;27.070;2024-01-16T02:11:25;96673.28;;;-2.27;100.0
63691;BME280;49837;57.280;27.070;2024-01-16T02:12:25;96671.98;;;-2.3;100.0
63691;BME280;49837;57.280;27.070;2024-01-16T02:13:25;96672.9;;;-2.33;100.0
63691;BME280;49837;57.280;27.070;2024-01-16T02:14:25;96679.98;;;-2.36;100.0
63691;BME280;49837;57.280;27.070;2024-01-16T02:15:26;96680.52;;;-2.36;100.0
63691;BME280;49837;57.280;27.070;2024-01-16T02:16:26;96684.07;;;-2.35;100.0
63691;BME280;49837;57.280;27.070;2024-01-16T02:17:26;96678.09;;;-2.37;100.0
63691;BME280;49837;57.280;27.070;2024-01-16T02:18:27;96672.84;;;-2.38;100.0
63691;BME280;49837;57.280;27.070;2024-01-16T02:19:27;96671.8;;;-2.34;100.0
63691;BME280;49837;57.280;27.070;2024-01-16T02:20:27;96672.7;;;-2.32;100.0
63691;BME280;49837;57.280;27.070;2024-01-16T02:21:28;96673.85;;;-2.37;100.0
63691;BME280;49837;57.280;27.070;2024-01-16T02:22:31;96673.88;;;-2.35;100.0
63691;BME280;49837;57.280;27.070;2024-01-16T02:23:30;96672.08;;;-2.33;100.0
63691;BME280;49837;57.280;27.070;2024-01-16T02:24:30;96673.78;;;-2.33;100.0
63691;BME280;49837;57.280;27.070;2024-01-16T02:25:30;96672.47;;;-2.32;100.0
63691;BME280;49837;57.280;27.070;2024-01-16T02:26:31;96674.95;;;-2.29;100.0
63691;BME280;49837;57.280;27.070;2024-01-16T02:27:31;96676.56;;;-2.33;100.0
63691;BME280;49837;57.280;27.070;2024-01-16T02:28:31;96678.12;;;-2.31;100.0
63691;BME280;49837;57.280;27.070;2024-01-16T02:29:32;96678.38;;;-2.28;100.0
63691;BME280;49837;57.280;27.070;2024-01-16T02:30:32;96677.95;;;-2.28;100.0
63691;BME280;49837;57.280;27.070;2024-01-16T02:31:33;96675.24;;;-2.27;100.0
63691;BME280;49837;57.280;27.070;2024-01-16T02:32:33;96678.34;;;-2.25;100.0
63691;BME280;49837;57.280;27.070;2024-01-16T02:33:33;96677.33;;;-2.26;100.0
63691;BME280;49837;57.280;27.070;2024-01-16T02:34:33;96673.41;;;-2.24;100.0
63691;BME280;49837;57.280;27.070;2024-01-16T02:35:34;96677.36;;;-2.25;100.0
63691;BME280;49837;57.280;27.070;2024-01-16T02:36:34;96679.02;;;-2.23;100.0
63691;BME280;49837;57.280;27.070;2024-01-16T02:37:34;96678.97;;;-2.27;100.0
63691;BME280;49837;57.280;27.070;2024-01-16T02:38:35;96681.11;;;-2.25;100.0
63691;BME280;49837;57.280;27.070;2024-01-16T02:39:35;96681.25;;;-2.26;100.0
63691;BME280;49837;57.280;27.070;2024-01-16T02:40:35;96678.83;;;-2.27;100.0
63691;BME280;49837;57.280;27.070;2024-01-16T02:41:36;96683.3;;;-2.27;100.0
63691;BME280;49837;57.280;27.070;2024-01-16T02:42:36;96679.41;;;-2.25;100.0
63691;BME280;49837;57.280;27.070;2024-01-16T02:43:36;96682.09;;;-2.25;100.0
63691;BME280;49837;57.280;27.070;2024-01-16T02:44:37;96681.86;;;-2.22;100.0
63691;BME280;49837;57.280;27.070;2024-01-16T02:45:37;96687.61;;;-2.21;100.0
63691;BME280;49837;57.280;27.070;2024-01-16T02:46:38;96688.09;;;-2.19;100.0
63691;BME280;49837;57.280;27.070;2024-01-16T02:47:38;96689.04;;;-2.2;100.0
63691;BME280;49837;57.280;27.070;2024-01-16T02:48:38;96683.56;;;-2.25;100.0
63691;BME280;49837;57.280;27.070;2024-01-16T02:49:38;96685.46;;;-2.28;100.0
63691;BME280;49837;57.280;27.070;2024-01-16T02:50:39;96684.61;;;-2.27;100.0
63691;BME280;49837;57.280;27.070;2024-01-16T02:51:39;96684.34;;;-2.24;100.0
63691;BME280;49837;57.280;27.070;2024-01-16T02:52:39;96678.47;;;-2.24;100.0
63691;BME280;49837;57.280;27.070;2024-01-16T02:53:40;96681.78;;;-2.3;100.0
63691;BME280;49837;57.280;27.070;2024-01-16T02:54:40;96680.7;;;-2.3;100.0
63691;BME280;49837;57.280;27.070;2024-01-16T02:55:40;96683.21;;;-2.29;100.0
63691;BME280;49837;57.280;27.070;2024-01-16T02:56:41;96681.71;;;-2.31;100.0
63691;BME280;49837;57.280;27.070;2024-01-16T02:57:41;96685.09;;;-2.24;100.0
63691;BME280;49837;57.280;27.070;2024-01-16T02:58:41;96686.25;;;-2.27;100.0
63691;BME280;49837;57.280;27.070;2024-01-16T02:59:45;96684.38;;;-2.25;100.0
63691;BME280;49837;57.280;27.070;2024-01-16T03:00:42;96682.72;;;-2.26;100.0
63691;BME280;49837;57.280;27.070;2024-01-16T03:01:43;96683.34;;;-2.26;100.0
63691;BME280;49837;57.280;27.070;2024-01-16T03:02:43;96682.16;;;-2.25;100.0
63691;BME280;49837;57.280;27.070;2024-01-16T03:03:43;96678.05;;;-2.26;100.0
63691;BME280;49837;57.280;27.070;2024-01-16T03:04:44;96681.5;;;-2.24;100.0
63691;BME280;49837;57.280;27.070;2024-01-16T03:05:44;96678.62;;;-2.24;100.0
63691;BME280;49837;57.280;27.070;2024-01-16T03:06:44;96677.39;;;-2.26;100.0
63691;BME280;49837;57.280;27.070;2024-01-16T03:07:45;96678.92;;;-2.26;100.0
63691;BME280;49837;57.280;27.070;2024-01-16T03:08:45;96677.33;;;-2.27;100.0
63691;BME280;49837;57.280;27.070;2024-01-16T03:09:45;96674.76;;;-2.32;100.0
63691;BME280;49837;57.280;27.070;2024-01-16T03:10:46;96671.23;;;-2.35;100.0
63691;BME280;49837;57.280;27.070;2024-01-16T03:11:46;96677.79;;;-2.28;100.0
63691;BME280;49837;57.280;27.070;2024-01-16T03:12:46;96677.33;;;-2.27;100.0
63691;BME280;49837;57.280;27.070;2024-01-16T03:13:47;96676.58;;;-2.26;100.0
63691;BME280;49837;57.280;27.070;2024-01-16T03:14:47;96680.92;;;-2.29;100.0
63691;BME280;49837;57.280;27.070;2024-01-16T03:15:47;96686.05;;;-2.31;100.0
63691;BME280;49837;57.280;27.070;2024-01-16T03:16:48;96683.64;;;-2.32;100.0
63691;BME280;49837;57.280;27.070;2024-01-16T03:17:48;96683.38;;;-2.29;100.0
63691;BME280;49837;57.280;27.070;2024-01-16T03:18:48;96681.16;;;-2.28;100.0
63691;BME280;49837;57.280;27.070;2024-01-16T03:19:49;96683.12;;;-2.31;100.0
63691;BME280;49837;57.280;27.070;2024-01-16T03:20:49;96680.02;;;-2.34;100.0
63691;BME280;49837;57.280;27.070;2024-01-16T03:21:49;96686.31;;;-2.29;100.0
63691;BME280;49837;57.280;27.070;2024-01-16T03:22:50;96689.09;;;-2.27;100.0
63691;BME280;49837;57.280;27.070;2024-01-16T03:23:50;96692.64;;;-2.28;100.0
63691;BME280;49837;57.280;27.070;2024-01-16T03:24:50;96689.22;;;-2.31;100.0
63691;BME280;49837;57.280;27.070;2024-01-16T03:25:51;96689.84;;;-2.32;100.0
63691;BME280;49837;57.280;27.070;2024-01-16T03:26:51;96690.09;;;-2.28;100.0
63691;BME280;49837;57.280;27.070;2024-01-16T03:27:51;96691.11;;;-2.26;100.0
63691;BME280;49837;57.280;27.070;2024-01-16T03:28:52;96691.01;;;-2.25;100.0
63691;BME280;49837;57.280;27.070;2024-01-16T03:29:52;96693.91;;;-2.24;100.0
63691;BME280;49837;57.280;27.070;2024-01-16T03:30:52;96694.63;;;-2.27;100.0
63691;BME280;49837;57.280;27.070;2024-01-16T03:31:53;96695.19;;;-2.26;100.0
63691;BME280;49837;57.280;27.070;2024-01-16T03:32:53;96692.16;;;-2.28;100.0
63691;BME280;49837;57.280;27.070;2024-01-16T03:33:53;96699.53;;;-2.24;100.0
63691;BME280;49837;57.280;27.070;2024-01-16T03:34:54;96699.72;;;-2.23;100.0
63691;BME280;49837;57.280;27.070;2024-01-16T03:35:54;96697.91;;;-2.31;100.0
63691;BME280;49837;57.280;27.070;2024-01-16T03:36:54;96696.86;;;-2.27;100.0
63691;BME280;49837;57.280;27.070;2024-01-16T03:37:55;96701.46;;;-2.28;100.0
63691;BME280;49837;57.280;27.070;2024-01-16T03:38:55;96697.73;;;-2.27;100.0
63691;BME280;49837;57.280;27.070;2024-01-16T03:39:55;96696.14;;;-2.28;100.0
63691;BME280;49837;57.280;27.070;2024-01-16T03:40:56;96693.4;;;-2.29;100.0
63691;BME280;49837;57.280;27.070;2024-01-16T03:41:56;96699.08;;;-2.28;100.0
63691;BME280;49837;57.280;27.070;2024-01-16T03:42:56;96694.8;;;-2.31;100.0
63691;BME280;49837;57.280;27.070;2024-01-16T03:43:57;96694.97;;;-2.34;100.0
63691;BME280;49837;57.280;27.070;2024-01-16T03:44:57;96698.3;;;-2.33;100.0
63691;BME280;49837;57.280;27.070;2024-01-16T03:45:57;96697.77;;;-2.28;100.0
63691;BME280;49837;57.280;27.070;2024-01-16T03:46:58;96702.96;;;-2.26;100.0
63691;BME280;49837;57.280;27.070;2024-01-16T03:47:58;96699.8;;;-2.27;100.0
63691;BME280;49837;57.280;27.070;2024-01-16T03:48:58;96704.12;;;-2.22;100.0
63691;BME280;49837;57.280;27.070;2024-01-16T03:49:58;96700.34;;;-2.21;100.0
63691;BME280;49837;57.280;27.070;2024-01-16T03:50:59;96705.79;;;-2.2;100.0
63691;BME280;49837;57.280;27.070;2024-01-16T03:52:00;96703.9;;;-2.22;100.0
63691;BME280;49837;57.280;27.070;2024-01-16T03:52:59;96700.97;;;-2.23;100.0
63691;BME280;49837;57.280;27.070;2024-01-16T03:54:00;96699.5;;;-2.25;100.0
63691;BME280;49837;57.280;27.070;2024-01-16T03:55:00;96698.88;;;-2.27;100.0
63691;BME280;49837;57.280;27.070;2024-01-16T03:56:00;96699.08;;;-2.3;100.0
63691;BME280;49837;57.280;27.070;2024-01-16T03:57:01;96703.62;;;-2.31;100.0
63691;BME280;49837;57.280;27.070;2024-01-16T03:58:01;96706.48;;;-2.25;100.0
63691;BME280;49837;57.280;27.070;2024-01-16T03:59:02;96704.82;;;-2.24;100.0
63691;BME280;49837;57.280;27.070;2024-01-16T04:00:02;96709.27;;;-2.3;100.0
63691;BME280;49837;57.280;27.070;2024-01-16T04:01:02;96705.94;;;-2.3;100.0
63691;BME280;49837;57.280;27.070;2024-01-16T04:02:03;96707.97;;;-2.3;100.0
63691;BME280;49837;57.280;27.070;2024-01-16T04:03:03;96707.6;;;-2.28;100.0
63691;BME280;49837;57.280;27.070;2024-01-16T04:04:03;96705.88;;;-2.33;100.0
63691;BME280;49837;57.280;27.070;2024-01-16T04:05:04;96707.09;;;-2.37;100.0
63691;BME280;49837;57.280;27.070;2024-01-16T04:06:14;96708.84;;;-2.34;100.0
63691;BME280;49837;57.280;27.070;2024-01-16T04:07:06;96704.6;;;-2.34;100.0
63691;BME280;49837;57.280;27.070;2024-01-16T04:08:07;96705.45;;;-2.32;100.0
63691;BME280;49837;57.280;27.070;2024-01-16T04:09:07;96702.64;;;-2.32;100.0
63691;BME280;49837;57.280;27.070;2024-01-16T04:10:08;96703.66;;;-2.37;100.0
63691;BME280;49837;57.280;27.070;2024-01-16T04:11:14;96702.88;;;-2.38;100.0
63691;BME280;49837;57.280;27.070;2024-01-16T04:12:12;96710.89;;;-2.27;100.0
63691;BME280;49837;57.280;27.070;2024-01-16T04:13:12;96707.17;;;-2.28;100.0
63691;BME280;49837;57.280;27.070;2024-01-16T04:14:13;96708.38;;;-2.3;100.0
63691;BME280;49837;57.280;27.070;2024-01-16T04:15:13;96709.78;;;-2.28;100.0
63691;BME280;49837;57.280;27.070;2024-01-16T04:16:13;96707.7;;;-2.31;100.0
63691;BME280;49837;57.280;27.070;2024-01-16T04:17:14;96707.7;;;-2.34;100.0
63691;BME280;49837;57.280;27.070;2024-01-16T04:18:14;96706.73;;;-2.37;100.0
63691;BME280;49837;57.280;27.070;2024-01-16T04:19:14;96709.56;;;-2.36;100.0
63691;BME280;49837;57.280;27.070;2024-01-16T04:20:15;96707.64;;;-2.39;100.0
63691;BME280;49837;57.280;27.070;2024-01-16T04:21:15;96705.69;;;-2.42;100.0
63691;BME280;49837;57.280;27.070;2024-01-16T04:22:16;96707.58;;;-2.4;100.0
63691;BME280;49837;57.280;27.070;2024-01-16T04:23:17;96707.91;;;-2.35;100.0
63691;BME280;49837;57.280;27.070;2024-01-16T04:24:17;96708.94;;;-2.34;100.0
63691;BME280;49837;57.280;27.070;2024-01-16T04:25:17;96712.48;;;-2.4;100.0
63691;BME280;49837;57.280;27.070;2024-01-16T04:26:18;96709.31;;;-2.43;100.0
63691;BME280;49837;57.280;27.070;2024-01-16T04:27:18;96714.05;;;-2.43;100.0
63691;BME280;49837;57.280;27.070;2024-01-16T04:28:18;96709.51;;;-2.44;100.0
63691;BME280;49837;57.280;27.070;2024-01-16T04:29:19;96714.66;;;-2.44;100.0
63691;BME280;49837;57.280;27.070;2024-01-16T04:30:19;96714.38;;;-2.46;100.0
63691;BME280;49837;57.280;27.070;2024-01-16T04:31:19;96716.4;;;-2.48;100.0
63691;BME280;49837;57.280;27.070;2024-01-16T04:32:20;96717.83;;;-2.47;100.0
63691;BME280;49837;57.280;27.070;2024-01-16T04:33:20;96714.14;;;-2.51;100.0
63691;BME280;49837;57.280;27.070;2024-01-16T04:34:20;96719.5;;;-2.53;100.0
63691;BME280;49837;57.280;27.070;2024-01-16T04:35:21;96717.94;;;-2.5;100.0
63691;BME280;49837;57.280;27.070;2024-01-16T04:36:21;96719.53;;;-2.49;100.0
63691;BME280;49837;57.280;27.070;2024-01-16T04:37:21;96719.01;;;-2.42;100.0
63691;BME280;49837;57.280;27.070;2024-01-16T04:38:22;96717.51;;;-2.47;100.0
63691;BME280;49837;57.280;27.070;2024-01-16T04:39:22;96715.55;;;-2.55;100.0
63691;BME280;49837;57.280;27.070;2024-01-16T04:40:22;96722.34;;;-2.58;100.0
63691;BME280;49837;57.280;27.070;2024-01-16T04:41:23;96720.58;;;-2.61;100.0
63691;BME280;49837;57.280;27.070;2024-01-16T04:42:23;96721.42;;;-2.62;100.0
63691;BME280;49837;57.280;27.070;2024-01-16T04:43:23;96722.92;;;-2.58;100.0
63691;BME280;49837;57.280;27.070;2024-01-16T04:44:23;96720.19;;;-2.59;100.0
63691;BME280;49837;57.280;27.070;2024-01-16T04:45:24;96723.34;;;-2.55;100.0
63691;BME280;49837;57.280;27.070;2024-01-16T04:46:24;96720.02;;;-2.56;100.0
63691;BME280;49837;57.280;27.070;2024-01-16T04:47:25;96724.85;;;-2.54;100.0
63691;BME280;49837;57.280;27.070;2024-01-16T04:48:25;96727.56;;;-2.54;100.0
63691;BME280;49837;57.280;27.070;2024-01-16T04:49:25;96721.75;;;-2.6;100.0
63691;BME280;49837;57.280;27.070;2024-01-16T04:50:25;96728.7;;;-2.6;100.0
63691;BME280;49837;57.280;27.070;2024-01-16T04:51:26;96725.8;;;-2.61;100.0
63691;BME280;49837;57.280;27.070;2024-01-16T04:52:26;96724.06;;;-2.57;100.0
63691;BME280;49837;57.280;27.070;2024-01-16T04:53:26;96727.27;;;-2.59;100.0
63691;BME280;49837;57.280;27.070;2024-01-16T04:54:27;96725.8;;;-2.59;100.0
63691;BME280;49837;57.280;27.070;2024-01-16T04:55:28;96728.61;;;-2.59;100.0
63691;BME280;49837;57.280;27.070;2024-01-16T04:56:27;96730.62;;;-2.62;100.0
63691;BME280;49837;57.280;27.070;2024-01-16T04:57:28;96730.43;;;-2.65;100.0
63691;BME280;49837;57.280;27.070;2024-01-16T04:58:28;96734.61;;;-2.68;100.0
63691;BME280;49837;57.280;27.070;2024-01-16T04:59:28;96735.59;;;-2.69;100.0
63691;BME280;49837;57.280;27.070;2024-01-16T05:00:29;96731.86;;;-2.72;100.0
63691;BME280;49837;57.280;27.070;2024-01-16T05:01:29;96737.18;;;-2.73;100.0
63691;BME280;49837;57.280;27.070;2024-01-16T05:02:29;96733.69;;;-2.76;100.0
63691;BME280;49837;57.280;27.070;2024-01-16T05:03:30;96737.87;;;-2.71;100.0
63691;BME280;49837;57.280;27.070;2024-01-16T05:04:30;96733.86;;;-2.68;100.0
63691;BME280;49837;57.280;27.070;2024-01-16T05:05:30;96735.72;;;-2.65;100.0
63691;BME280;49837;57.280;27.070;2024-01-16T05:06:31;96739.59;;;-2.66;100.0
63691;BME280;49837;57.280;27.070;2024-01-16T05:07:31;96742.05;;;-2.64;100.0
63691;BME280;49837;57.280;27.070;2024-01-16T05:08:31;96742.15;;;-2.6;100.0
63691;BME280;49837;57.280;27.070;2024-01-16T05:09:32;96743.39;;;-2.59;100.0
63691;BME280;49837;57.280;27.070;2024-01-16T05:10:32;96741.04;;;-2.58;100.0
63691;BME280;49837;57.280;27.070;2024-01-16T05:11:32;96743.88;;;-2.57;100.0
63691;BME280;49837;57.280;27.070;2024-01-16T05:12:33;96744.83;;;-2.56;100.0
63691;BME280;49837;57.280;27.070;2024-01-16T05:13:33;96746.55;;;-2.56;100.0
63691;BME280;49837;57.280;27.070;2024-01-16T05:14:33;96751.68;;;-2.56;100.0
63691;BME280;49837;57.280;27.070;2024-01-16T05:15:34;96750.89;;;-2.58;100.0
63691;BME280;49837;57.280;27.070;2024-01-16T05:16:34;96756.48;;;-2.59;100.0